createdAt,value
2019-04-27T00:01:53.851Z,52.80
2019-04-27T00:04:30.377Z,52.70
2019-04-27T00:07:02.986Z,52.80
2019-04-27T00:09:36.114Z,52.90
2019-04-27T00:12:05.885Z,52.90
2019-04-27T00:14:33.185Z,52.80
2019-04-27T00:17:42.753Z,52.80
2019-04-27T00:23:53.911Z,52.80
2019-04-27T00:26:21.222Z,52.60
2019-04-27T00:28:48.756Z,52.70
2019-04-27T00:31:16.085Z,53.30
2019-04-27T00:33:44.515Z,52.70
2019-04-27T00:36:19.653Z,52.70
2019-04-27T00:39:13.871Z,52.70
2019-04-27T00:41:43.040Z,52.70
2019-04-27T00:44:10.693Z,52.70
2019-04-27T00:46:38.289Z,52.70
2019-04-27T00:49:05.621Z,52.80
2019-04-27T00:51:33.334Z,52.70
2019-04-27T00:54:01.087Z,52.70
2019-04-27T00:56:53.015Z,52.60
2019-04-27T00:59:39.917Z,52.60
2019-04-27T01:02:33.197Z,52.60
2019-04-27T01:05:05.927Z,52.70
2019-04-27T01:07:33.519Z,52.70
2019-04-27T01:10:03.041Z,52.70
2019-04-27T01:12:31.217Z,52.60
2019-04-27T01:14:58.454Z,52.60
2019-04-27T01:17:25.884Z,52.60
2019-04-27T01:19:53.462Z,52.60
2019-04-27T01:22:21.857Z,52.60
2019-04-27T01:24:49.357Z,52.50
2019-04-27T01:27:34.489Z,52.50
2019-04-27T01:30:01.922Z,52.50
2019-04-27T01:32:29.324Z,52.50
2019-04-27T01:34:56.896Z,52.50
2019-04-27T01:37:24.273Z,52.60
2019-04-27T01:39:51.638Z,52.50
2019-04-27T01:42:19.358Z,52.50
2019-04-27T01:44:46.786Z,52.50
2019-04-27T01:47:14.089Z,52.50
2019-04-27T01:49:41.746Z,52.40
2019-04-27T01:52:09.644Z,52.50
2019-04-27T01:54:37.223Z,52.50
2019-04-27T01:57:04.994Z,52.40
2019-04-27T01:59:33.666Z,52.40
2019-04-27T02:02:19.065Z,52.10
2019-04-27T02:05:10.054Z,52.30
2019-04-27T02:07:38.987Z,52.40
2019-04-27T02:10:08.585Z,52.50
2019-04-27T02:12:36.213Z,52.40
2019-04-27T02:15:04.302Z,52.40
2019-04-27T02:17:31.620Z,52.40
2019-04-27T02:19:59.561Z,52.30
2019-04-27T02:22:26.869Z,52.40
2019-04-27T02:24:54.216Z,52.30
2019-04-27T02:27:23.430Z,52.30
2019-04-27T02:30:13.049Z,52.40
2019-04-27T02:32:59.304Z,52.40
2019-04-27T02:35:26.693Z,52.30
2019-04-27T02:37:53.934Z,52.30
2019-04-27T02:40:50.019Z,52.30
2019-04-27T02:43:20.446Z,52.30
2019-04-27T02:45:50.161Z,52.30
2019-04-27T02:48:19.693Z,52.30
2019-04-27T02:50:49.973Z,52.30
2019-04-27T02:53:19.519Z,52.30
2019-04-27T02:55:46.288Z,52.30
2019-04-27T02:58:13.810Z,52.30
2019-04-27T03:00:41.279Z,52.20
2019-04-27T03:03:10.445Z,52.30
2019-04-27T03:05:39.911Z,52.20
2019-04-27T03:08:09.820Z,52.20
2019-04-27T03:10:36.790Z,52.30
2019-04-27T03:13:21.457Z,52.20
2019-04-27T03:16:07.393Z,52.30
2019-04-27T03:18:51.051Z,52.30
2019-04-27T03:21:21.221Z,52.20
2019-04-27T03:23:50.159Z,52.20
2019-04-27T03:26:43.270Z,52.20
2019-04-27T03:29:10.595Z,52.20
2019-04-27T03:31:42.536Z,52.30
2019-04-27T03:34:15.765Z,52.20
2019-04-27T03:36:39.340Z,52.20
2019-04-27T03:39:06.554Z,52.30
2019-04-27T03:41:33.899Z,52.20
2019-04-27T03:44:01.232Z,52.20
2019-04-27T03:46:30.259Z,52.20
2019-04-27T03:49:00.021Z,52.60
2019-04-27T03:51:55.954Z,52.40
2019-04-27T03:54:40.582Z,52.20
2019-04-27T03:57:16.703Z,52.20
2019-04-27T04:00:02.393Z,52.30
2019-04-27T04:02:31.745Z,52.20
2019-04-27T04:04:59.873Z,52.20
2019-04-27T04:07:29.760Z,52.20
2019-04-27T04:09:56.802Z,52.10
2019-04-27T04:13:01.390Z,52.20
2019-04-27T04:15:39.842Z,52.30
2019-04-27T04:18:09.507Z,52.20
2019-04-27T04:20:36.370Z,52.30
2019-04-27T04:23:03.710Z,52.20
2019-04-27T04:25:33.241Z,52.20
2019-04-27T04:28:00.633Z,52.20
2019-04-27T04:30:30.322Z,52.20
2019-04-27T04:32:59.674Z,52.20
2019-04-27T04:35:26.395Z,52.20
2019-04-27T04:37:53.772Z,52.20
2019-04-27T04:40:25.682Z,52.10
2019-04-27T04:43:03.331Z,52.10
2019-04-27T04:45:59.913Z,52.20
2019-04-27T04:48:30.048Z,52.20
2019-04-27T04:50:56.638Z,52.10
2019-04-27T04:53:23.870Z,52.20
2019-04-27T04:55:51.245Z,52.20
2019-04-27T04:58:20.933Z,52.20
2019-04-27T05:00:50.246Z,52.10
2019-04-27T05:03:17.091Z,52.10
2019-04-27T05:05:44.421Z,52.10
2019-04-27T05:08:13.164Z,52.20
2019-04-27T05:10:41.489Z,52.10
2019-04-27T05:13:09.372Z,52.10
2019-04-27T05:15:37.093Z,52.10
2019-04-27T05:18:04.446Z,52.10
2019-04-27T05:20:48.556Z,52.10
2019-04-27T05:23:16.121Z,52.20
2019-04-27T05:25:43.698Z,52.10
2019-04-27T05:28:11.037Z,52.00
2019-04-27T05:30:39.264Z,52.20
2019-04-27T05:33:08.733Z,52.10
2019-04-27T05:35:35.994Z,52.20
2019-04-27T05:38:07.132Z,52.10
2019-04-27T05:40:32.457Z,52.20
2019-04-27T05:42:59.833Z,52.10
2019-04-27T05:46:41.037Z,52.20
2019-04-27T05:49:12.146Z,52.10
2019-04-27T05:51:40.527Z,52.10
2019-04-27T05:54:09.345Z,52.20
2019-04-27T05:56:38.835Z,52.10
2019-04-27T05:59:05.881Z,52.00
2019-04-27T06:01:33.289Z,52.00
2019-04-27T06:04:00.754Z,52.10
2019-04-27T06:06:29.542Z,52.10
2019-04-27T06:08:56.954Z,52.10
2019-04-27T06:11:24.256Z,52.10
2019-04-27T06:13:51.506Z,52.10
2019-04-27T06:16:19.478Z,52.10
2019-04-27T06:18:46.879Z,52.10
2019-04-27T06:21:14.201Z,52.00
2019-04-27T06:23:41.675Z,52.00
2019-04-27T06:26:11.698Z,52.00
2019-04-27T06:28:39.781Z,52.00
2019-04-27T06:31:08.781Z,52.00
2019-04-27T06:33:36.186Z,52.30
2019-04-27T06:36:03.521Z,52.00
2019-04-27T06:38:31.861Z,52.00
2019-04-27T06:41:01.292Z,52.00
2019-04-27T06:43:29.416Z,52.00
2019-04-27T06:45:58.598Z,52.00
2019-04-27T06:48:25.870Z,52.60
2019-04-27T06:51:02.595Z,52.00
2019-04-27T06:53:22.572Z,52.00
2019-04-27T06:55:50.094Z,52.00
2019-04-27T06:58:19.776Z,52.10
2019-04-27T07:00:46.626Z,52.00
2019-04-27T07:03:14.161Z,52.00
2019-04-27T07:05:41.645Z,52.00
2019-04-27T07:08:09.065Z,52.00
2019-04-27T07:10:36.473Z,52.10
2019-04-27T07:13:03.929Z,52.00
2019-04-27T07:15:31.667Z,52.00
2019-04-27T07:17:59.649Z,52.00
2019-04-27T07:20:30.299Z,52.10
2019-04-27T07:22:56.142Z,52.10
2019-04-27T07:25:23.577Z,52.00
2019-04-27T07:27:50.882Z,52.10
2019-04-27T07:30:19.084Z,52.00
2019-04-27T07:34:22.930Z,52.10
2019-04-27T07:36:50.522Z,52.10
2019-04-27T07:39:19.233Z,52.00
2019-04-27T07:41:48.514Z,52.00
2019-04-27T07:44:31.021Z,52.10
2019-04-27T07:47:15.131Z,52.00
2019-04-27T07:49:42.561Z,52.10
2019-04-27T07:52:09.929Z,52.10
2019-04-27T07:54:38.528Z,52.10
2019-04-27T07:57:06.867Z,52.10
2019-04-27T07:59:34.215Z,52.50
2019-04-27T08:02:01.821Z,52.10
2019-04-27T08:04:29.153Z,52.10
2019-04-27T08:06:56.489Z,52.20
2019-04-27T08:09:23.817Z,52.20
2019-04-27T08:11:51.274Z,52.30
2019-04-27T08:14:18.659Z,52.20
2019-04-27T08:16:48.676Z,52.30
2019-04-27T08:19:19.622Z,52.30
2019-04-27T08:21:47.077Z,52.30
2019-04-27T08:24:14.729Z,52.20
2019-04-27T08:26:49.962Z,52.20
2019-04-27T08:29:40.923Z,52.20
2019-04-27T08:32:12.192Z,52.30
2019-04-27T08:34:40.873Z,52.30
2019-04-27T08:37:09.127Z,52.30
2019-04-27T08:39:39.668Z,52.20
2019-04-27T08:42:07.102Z,52.30
2019-04-27T08:44:34.609Z,52.30
2019-04-27T08:47:02.027Z,52.30
2019-04-27T08:49:29.392Z,52.40
2019-04-27T08:52:01.218Z,52.30
2019-04-27T08:54:26.061Z,52.30
2019-04-27T08:56:53.375Z,52.40
2019-04-27T08:59:20.702Z,52.30
2019-04-27T09:01:49.363Z,52.30
2019-04-27T09:04:16.761Z,52.30
2019-04-27T09:06:46.137Z,52.30
2019-04-27T09:09:22.341Z,52.30
2019-04-27T09:11:59.451Z,52.30
2019-04-27T09:14:35.052Z,52.40
2019-04-27T09:17:11.105Z,52.30
2019-04-27T09:19:53.684Z,52.30
2019-04-27T09:22:22.787Z,52.40
2019-04-27T09:24:50.506Z,52.30
2019-04-27T09:27:19.938Z,52.30
2019-04-27T09:29:47.442Z,52.30
2019-04-27T09:32:14.749Z,52.30
2019-04-27T09:34:42.271Z,52.30
2019-04-27T09:37:09.592Z,52.30
2019-04-27T09:39:36.937Z,52.30
2019-04-27T09:42:06.345Z,52.30
2019-04-27T09:44:33.453Z,52.20
2019-04-27T09:47:00.776Z,52.30
2019-04-27T09:49:28.097Z,52.30
2019-04-27T09:51:55.828Z,52.90
2019-04-27T09:54:23.793Z,52.30
2019-04-27T09:56:51.078Z,52.30
2019-04-27T09:59:19.421Z,52.20
2019-04-27T10:01:46.794Z,52.30
2019-04-27T10:04:17.491Z,52.30
2019-04-27T10:06:46.206Z,52.30
2019-04-27T10:09:15.979Z,52.30
2019-04-27T10:11:43.770Z,52.30
2019-04-27T10:14:11.120Z,52.30
2019-04-27T10:16:39.005Z,52.30
2019-04-27T10:19:06.309Z,52.30
2019-04-27T10:21:33.856Z,52.30
2019-04-27T10:24:01.242Z,52.30
2019-04-27T10:26:28.521Z,52.20
2019-04-27T10:28:56.101Z,52.30
2019-04-27T10:31:23.458Z,52.30
2019-04-27T10:33:50.890Z,52.20
2019-04-27T10:36:38.084Z,52.30
2019-04-27T10:39:07.238Z,52.30
2019-04-27T10:41:36.857Z,52.30
2019-04-27T10:44:05.807Z,52.30
2019-04-27T10:46:33.649Z,52.30
2019-04-27T10:49:01.006Z,52.20
2019-04-27T10:51:28.219Z,52.30
2019-04-27T10:53:56.628Z,52.30
2019-04-27T10:56:25.508Z,52.30
2019-04-27T10:58:55.822Z,52.30
2019-04-27T11:01:23.366Z,52.30
2019-04-27T11:04:09.084Z,52.30
2019-04-27T11:06:39.424Z,52.80
2019-04-27T11:09:08.042Z,52.20
2019-04-27T11:11:36.357Z,52.20
2019-04-27T11:14:04.211Z,52.20
2019-04-27T11:16:31.785Z,52.20
2019-04-27T11:18:59.236Z,52.20
2019-04-27T11:21:26.791Z,52.80
2019-04-27T11:23:55.973Z,52.20
2019-04-27T11:26:23.645Z,52.20
2019-04-27T11:28:52.317Z,52.20
2019-04-27T11:31:19.856Z,52.20
2019-04-27T11:33:47.573Z,52.20
2019-04-27T11:36:35.698Z,52.20
2019-04-27T11:39:06.813Z,52.20
2019-04-27T11:41:34.667Z,52.20
2019-04-27T11:44:03.681Z,52.20
2019-04-27T11:46:31.177Z,52.20
2019-04-27T11:48:58.497Z,52.20
2019-04-27T11:51:26.614Z,52.20
2019-04-27T11:53:54.037Z,52.20
2019-04-27T11:56:21.369Z,52.30
2019-04-27T11:58:48.898Z,52.30
2019-04-27T12:01:16.277Z,52.20
2019-04-27T12:03:43.493Z,52.20
2019-04-27T12:06:10.697Z,52.20
2019-04-27T12:08:38.672Z,52.20
2019-04-27T12:11:06.026Z,52.20
2019-04-27T12:13:33.521Z,52.20
2019-04-27T12:16:00.858Z,52.20
2019-04-27T12:18:28.073Z,52.20
2019-04-27T12:20:55.835Z,52.20
2019-04-27T12:23:32.999Z,52.20
2019-04-27T12:25:52.433Z,52.20
2019-04-27T12:28:45.868Z,52.20
2019-04-27T12:31:19.901Z,52.20
2019-04-27T12:33:47.242Z,52.30
2019-04-27T12:36:15.749Z,52.20
2019-04-27T12:38:43.085Z,52.30
2019-04-27T12:41:10.400Z,52.20
2019-04-27T12:43:39.361Z,52.20
2019-04-27T12:46:06.801Z,52.20
2019-04-27T12:48:37.150Z,52.80
2019-04-27T12:51:03.245Z,52.20
2019-04-27T12:53:48.006Z,52.20
2019-04-27T12:56:18.437Z,52.20
2019-04-27T12:58:59.198Z,52.20
2019-04-27T13:01:26.894Z,52.20
2019-04-27T13:03:57.093Z,52.20
2019-04-27T13:06:23.741Z,52.20
2019-04-27T13:08:51.072Z,52.20
2019-04-27T13:11:18.392Z,52.20
2019-04-27T13:13:46.045Z,52.20
2019-04-27T13:16:13.594Z,52.20
2019-04-27T13:18:41.141Z,52.20
2019-04-27T13:21:08.561Z,52.10
2019-04-27T13:23:37.155Z,52.20
2019-04-27T13:26:06.278Z,52.10
2019-04-27T13:28:33.701Z,52.20
2019-04-27T13:31:01.010Z,52.10
2019-04-27T13:33:28.345Z,52.20
2019-04-27T13:35:55.731Z,52.10
2019-04-27T13:38:23.238Z,52.70
2019-04-27T13:41:10.283Z,52.20
2019-04-27T13:43:39.225Z,52.10
2019-04-27T13:46:26.027Z,52.20
2019-04-27T13:49:20.198Z,52.20
2019-04-27T13:51:55.662Z,52.20
2019-04-27T13:54:28.395Z,52.30
2019-04-27T13:56:54.155Z,52.20
2019-04-27T13:59:21.889Z,52.30
2019-04-27T14:01:49.402Z,52.20
2019-04-27T14:04:16.728Z,52.20
2019-04-27T14:06:43.944Z,52.20
2019-04-27T14:09:12.774Z,52.20
2019-04-27T14:11:42.220Z,52.20
2019-04-27T14:14:09.945Z,52.20
2019-04-27T14:16:39.216Z,52.20
2019-04-27T14:19:08.629Z,52.20
2019-04-27T14:21:36.036Z,52.20
2019-04-27T14:24:03.632Z,52.20
2019-04-27T14:26:31.033Z,52.20
2019-04-27T14:28:58.439Z,52.20
2019-04-27T14:31:25.700Z,52.20
2019-04-27T14:33:53.044Z,52.20
2019-04-27T14:36:20.316Z,52.20
2019-04-27T14:38:50.045Z,52.20
2019-04-27T14:41:19.156Z,52.80
2019-04-27T14:43:48.280Z,52.20
2019-04-27T14:46:16.613Z,52.20
2019-04-27T14:48:46.249Z,52.20
2019-04-27T14:51:15.661Z,52.20
2019-04-27T14:53:46.009Z,52.20
2019-04-27T14:56:13.341Z,52.20
2019-04-27T14:58:40.844Z,52.20
2019-04-27T15:01:08.311Z,52.20
2019-04-27T15:03:35.924Z,52.20
2019-04-27T15:06:03.542Z,52.10
2019-04-27T15:08:31.066Z,52.20
2019-04-27T15:10:58.564Z,52.20
2019-04-27T15:13:26.081Z,52.20
2019-04-27T15:15:53.473Z,52.20
2019-04-27T15:18:22.769Z,52.10
2019-04-27T15:20:51.733Z,52.20
2019-04-27T15:23:20.120Z,52.10
2019-04-27T15:25:49.781Z,52.20
2019-04-27T15:28:20.582Z,52.20
2019-04-27T15:31:09.891Z,52.20
2019-04-27T15:33:55.385Z,52.20
2019-04-27T15:36:39.325Z,52.20
2019-04-27T15:39:18.256Z,52.20
2019-04-27T15:41:50.540Z,52.10
2019-04-27T15:44:18.772Z,52.10
2019-04-27T15:46:47.854Z,52.10
2019-04-27T15:49:15.413Z,52.10
2019-04-27T15:51:44.144Z,52.20
2019-04-27T15:54:12.505Z,52.20
2019-04-27T15:56:39.901Z,52.10
2019-04-27T15:59:08.648Z,52.10
2019-04-27T16:01:37.795Z,52.20
2019-04-27T16:04:07.567Z,52.10
2019-04-27T16:06:35.017Z,52.10
2019-04-27T16:09:04.077Z,52.10
2019-04-27T16:11:33.818Z,52.10
2019-04-27T16:14:03.047Z,52.10
2019-04-27T16:16:33.530Z,52.10
2019-04-27T16:19:03.556Z,52.10
2019-04-27T16:21:31.553Z,52.10
2019-04-27T16:23:59.368Z,52.10
2019-04-27T16:26:29.203Z,52.10
2019-04-27T16:28:58.128Z,52.10
2019-04-27T16:31:30.252Z,52.10
2019-04-27T16:33:59.235Z,52.10
2019-04-27T16:36:25.713Z,52.10
2019-04-27T16:39:03.643Z,52.20
2019-04-27T16:41:32.941Z,52.10
2019-04-27T16:44:02.281Z,52.10
2019-04-27T16:46:29.721Z,52.10
2019-04-27T16:48:59.283Z,52.10
2019-04-27T16:51:29.728Z,52.10
2019-04-27T16:53:56.405Z,52.10
2019-04-27T16:56:24.613Z,52.10
2019-04-27T16:58:56.717Z,52.10
2019-04-27T17:01:28.509Z,52.10
2019-04-27T17:03:56.465Z,52.10
2019-04-27T17:06:24.042Z,52.10
2019-04-27T17:08:51.912Z,52.10
2019-04-27T17:11:20.629Z,52.10
2019-04-27T17:13:58.976Z,52.10
2019-04-27T17:16:49.252Z,52.10
2019-04-27T17:19:22.793Z,52.10
2019-04-27T17:21:50.125Z,52.10
2019-04-27T17:24:42.072Z,52.10
2019-04-27T17:27:04.905Z,52.10
2019-04-27T17:29:35.153Z,52.10
2019-04-27T17:32:03.002Z,52.10
2019-04-27T17:34:30.308Z,52.20
2019-04-27T17:36:59.056Z,52.10
2019-04-27T17:39:28.313Z,52.20
2019-04-27T17:41:55.596Z,52.10
2019-04-27T17:44:23.279Z,52.10
2019-04-27T17:46:51.262Z,52.10
2019-04-27T17:49:18.892Z,52.20
2019-04-27T17:51:48.314Z,52.10
2019-04-27T17:54:15.765Z,52.10
2019-04-27T17:56:49.603Z,52.10
2019-04-27T17:59:17.257Z,52.20
2019-04-27T18:01:42.673Z,52.10
2019-04-27T18:04:10.701Z,52.10
2019-04-27T18:06:39.185Z,52.10
2019-04-27T18:09:09.788Z,52.10
2019-04-27T18:11:38.486Z,52.10
2019-04-27T18:14:09.433Z,52.10
2019-04-27T18:16:38.056Z,52.10
2019-04-27T18:19:12.030Z,52.10
2019-04-27T18:21:56.773Z,52.10
2019-04-27T18:24:29.608Z,52.10
2019-04-27T18:27:09.014Z,52.10
2019-04-27T18:29:39.245Z,52.10
2019-04-27T18:32:08.823Z,52.20
2019-04-27T18:34:36.457Z,52.10
2019-04-27T18:37:04.399Z,52.10
2019-04-27T18:39:32.026Z,52.20
2019-04-27T18:41:59.645Z,52.10
2019-04-27T18:44:29.299Z,52.70
2019-04-27T18:46:58.815Z,52.10
2019-04-27T18:49:45.291Z,52.10
2019-04-27T18:52:30.773Z,52.10
2019-04-27T18:54:58.273Z,52.10
2019-04-27T18:57:25.849Z,52.10
2019-04-27T18:59:53.388Z,52.10
2019-04-27T19:02:20.729Z,52.10
2019-04-27T19:04:50.169Z,52.10
2019-04-27T19:07:17.563Z,52.10
2019-04-27T19:09:44.880Z,52.00
2019-04-27T19:12:12.983Z,52.60
2019-04-27T19:14:41.585Z,52.00
2019-04-27T19:17:09.042Z,52.10
2019-04-27T19:19:37.487Z,52.10
2019-04-27T19:22:05.681Z,52.10
2019-04-27T19:24:33.481Z,52.00
2019-04-27T19:27:16.130Z,52.00
2019-04-27T19:29:45.304Z,52.00
2019-04-27T19:32:12.981Z,52.10
2019-04-27T19:34:40.540Z,52.00
2019-04-27T19:37:08.302Z,52.00
2019-04-27T19:39:39.405Z,52.00
2019-04-27T19:42:07.430Z,52.00
2019-04-27T19:44:34.846Z,52.00
2019-04-27T19:47:02.357Z,52.10
2019-04-27T19:49:31.760Z,52.00
2019-04-27T19:51:59.517Z,52.00
2019-04-27T19:54:28.235Z,52.10
2019-04-27T19:56:56.489Z,52.00
2019-04-27T19:59:29.114Z,52.00
2019-04-27T20:01:58.625Z,52.00
2019-04-27T20:04:31.880Z,52.10
2019-04-27T20:07:00.013Z,52.00
2019-04-27T20:09:33.376Z,52.00
2019-04-27T20:12:02.577Z,52.00
2019-04-27T20:14:50.965Z,52.10
2019-04-27T20:17:18.402Z,52.00
2019-04-27T20:19:46.962Z,52.10
2019-04-27T20:22:14.789Z,52.10
2019-04-27T20:24:42.241Z,52.10
2019-04-27T20:27:10.904Z,52.00
2019-04-27T20:29:38.685Z,52.10
2019-04-27T20:32:06.321Z,52.00
2019-04-27T20:34:33.648Z,52.00
2019-04-27T20:37:01.627Z,52.10
2019-04-27T20:39:29.250Z,52.10
2019-04-27T20:41:56.657Z,52.00
2019-04-27T20:44:24.073Z,52.00
2019-04-27T20:46:51.546Z,52.10
2019-04-27T20:49:20.145Z,52.00
2019-04-27T20:51:53.263Z,52.00
2019-04-27T20:54:21.384Z,52.00
2019-04-27T20:56:48.753Z,52.00
2019-04-27T20:59:16.073Z,52.00
2019-04-27T21:01:43.601Z,52.00
2019-04-27T21:04:11.336Z,52.00
2019-04-27T21:06:45.233Z,52.10
2019-04-27T21:09:16.422Z,52.00
2019-04-27T21:11:45.644Z,52.00
2019-04-27T21:14:13.248Z,52.00
2019-04-27T21:16:41.339Z,52.00
2019-04-27T21:19:10.808Z,52.00
2019-04-27T21:21:40.754Z,52.00
2019-04-27T21:24:08.775Z,52.00
2019-04-27T21:26:36.297Z,52.00
2019-04-27T21:29:03.681Z,52.00
2019-04-27T21:31:31.636Z,52.00
2019-04-27T21:33:59.037Z,52.00
2019-04-27T21:36:26.458Z,52.10
2019-04-27T21:38:53.800Z,52.00
2019-04-27T21:41:23.161Z,52.00
2019-04-27T21:43:51.219Z,52.00
2019-04-27T21:46:18.812Z,52.10
2019-04-27T21:48:46.384Z,52.00
2019-04-27T21:51:13.945Z,52.00
2019-04-27T21:54:00.116Z,52.00
2019-04-27T21:56:27.513Z,52.10
2019-04-27T21:58:54.961Z,52.00
2019-04-27T22:01:26.796Z,52.00
2019-04-27T22:03:54.445Z,52.00
2019-04-27T22:06:21.978Z,52.00
2019-04-27T22:08:51.177Z,52.00
2019-04-27T22:11:18.641Z,52.70
2019-04-27T22:13:45.997Z,52.10
2019-04-27T22:16:13.434Z,52.00
2019-04-27T22:18:41.720Z,52.00
2019-04-27T22:21:11.335Z,52.00
2019-04-27T22:24:04.669Z,52.00
2019-04-27T22:26:32.272Z,52.00
2019-04-27T22:29:01.604Z,52.70
2019-04-27T22:31:29.060Z,52.00
2019-04-27T22:33:56.565Z,52.00
2019-04-27T22:36:24.457Z,52.00
2019-04-27T22:38:53.565Z,52.00
2019-04-27T22:41:41.712Z,51.90
2019-04-27T22:44:26.954Z,52.00
2019-04-27T22:46:54.837Z,52.00
2019-04-27T22:49:22.256Z,52.00
2019-04-27T22:51:51.216Z,52.00
2019-04-27T22:54:18.673Z,52.00
2019-04-27T22:56:46.818Z,52.00
2019-04-27T22:59:45.780Z,52.00
2019-04-27T23:02:31.890Z,52.00
2019-04-27T23:05:02.057Z,52.00
2019-04-27T23:07:31.623Z,52.00
2019-04-27T23:09:59.045Z,52.10
2019-04-27T23:12:26.327Z,52.00
2019-04-27T23:14:53.877Z,52.00
2019-04-27T23:17:46.741Z,52.00
2019-04-27T23:20:14.416Z,52.00
2019-04-27T23:22:41.850Z,52.00
2019-04-27T23:25:11.273Z,52.10
2019-04-27T23:27:41.020Z,52.00
2019-04-27T23:30:08.614Z,52.00
2019-04-27T23:32:42.213Z,52.00
2019-04-27T23:35:09.695Z,52.00
2019-04-27T23:37:37.808Z,52.00
2019-04-27T23:40:05.406Z,52.00
2019-04-27T23:42:32.732Z,52.00
2019-04-27T23:45:00.313Z,52.00
2019-04-27T23:47:27.748Z,52.00
2019-04-27T23:49:55.137Z,52.30
2019-04-27T23:52:42.106Z,51.90
2019-04-27T23:55:10.877Z,52.00
